Custer, SD (57730)

4:20 PM MDT on March 28, 2017 (GMT -0600)
Pacer Subdivision | | Change Station

Elev 5558 ft 43.73 °N, 103.60 °W | Updated 10 seconds ago

Rain
Rain
38.6 °F
Feels Like 39 °F
N
0.0
Wind Variable Wind from SSE
Gusts 0.0 mph

Today
High -- | Low -- °F
--% Chance of Precip.
Yesterday
High -- | Low -- °F
Precip. -- in
Pressure 30.03 in
Visibility 2.0 miles
Clouds Overcast 600 ft
Windchill 39 °F
Dew Point 37 °F
Humidity 94%
Rainfall in
Snow Depth Not available.
6:42 AM 7:16 PM
New Moon, 1% visible
SPECI KCUT 282210Z AUTO 06005KT 2SM BR OVC006 03/02 A3003 RMK AO2 RAE09 P0000 T00330017
Pressure 30.03 in
Visibility 2.0 miles
Clouds Overcast 600 ft
Windchill 39 °F
Dew Point 37 °F
Humidity 94%
Rainfall in
Snow Depth Not available.
6:42 AM 7:16 PM
New Moon, 1% visible
SPECI KCUT 282210Z AUTO 06005KT 2SM BR OVC006 03/02 A3003 RMK AO2 RAE09 P0000 T00330017

Get Severe Weather Alerts

Thanks for signing up!

Be on the lookout for a verification email in your inbox.

You'll start receiving the daily forecast at 8 AM.

×

10-Day Weather Forecast

Almanac

Astronomy

Mar. 28, 2017 Rise Set
Actual Time
Civil Twilight
Nautical Twilight
Astronomical Twilight
Moon
Length of Visible Light
Length of Day
Tomorrow will be .
, % of the Moon is Illuminated

Today's Extremes

State Highs State Lows

Community

WunderPhotos

Upload Photos

1,962,540 photos uploaded!

WunderBlog® & News

Nearby

Air Quality

  Air Quality AQ Index Pollutant
Not available.

Snow Depth

Station Depth Elevation

Earthquake Activity

City Distance Mag. Time & Date
Minimum magnitude displayed is 2.5.

Earthquake Activity

City Distance Mag. Time & Date
Minimum magnitude displayed is 2.5.

Coastal Water Temperatures

Place Temperature

Stations

Nearby Weather Stations

Station Location Temp. Windchill Dew Point Humidity Wind Precip. Elev Updated Type
                   

Watches & Warnings

There are currently no watches in effect.